| ตารางข้อมูล | ค้นข้อมูล1 | ค้นข้อมูล2 | ค่าสูงสุด-ต่ำสุด |  

Select Sensor -->| 20401 | 20402 | 20404 | 4529A | 4529C | 4529D | 814 | หน้าจอย่อ | 4529 |
ข้อมูลรวม (ยังไม่ได้เลือกรายการ)

IDDateRoom  Temp  Humidity
 348747  2024-05-29 14:56:36  20401  26.7  46.5 
 348746  2024-05-29 14:51:29  20404  32.8  53.2 
 348745  2024-05-29 14:49:28  20402  31.4  42.7 
 348744  2024-05-29 14:48:18  4529D  31.9  66.7 
 348743  2024-05-29 14:46:59  20401  26.9  46.6 
 348742  2024-05-29 14:41:19  20404  32.8  53.1 
 348741  2024-05-29 14:39:19  20402  31.4  42.8 
 348740  2024-05-29 14:38:37  814  32.0  90.6 
 348739  2024-05-29 14:37:22  20401  27.3  46.8 
 348738  2024-05-29 14:31:10  20404  32.8  52.5 
 348737  2024-05-29 14:29:21  4529D  31.8  66.3 
 348736  2024-05-29 14:29:08  20402  31.0  42.0 
 348735  2024-05-29 14:27:45  20401  27.4  45.4 
 348734  2024-05-29 14:21:00  20404  32.9  52.3 
 348733  2024-05-29 14:19:44  814  32.0  90.5 
 348732  2024-05-29 14:18:58  20402  30.2  42.9 
 348731  2024-05-29 14:18:08  20401  27.5  45.2 
 348730  2024-05-29 14:10:50  20404  32.8  52.3 
 348729  2024-05-29 14:10:22  4529D  31.7  66.0 
 348728  2024-05-29 14:08:48  20402  29.0  44.9 
 348727  2024-05-29 14:08:31  20401  27.6  45.6 
 348726  2024-05-29 14:00:50  814  31.9  90.4 
 348725  2024-05-29 14:00:39  20404  32.8  52.2 
 348724  2024-05-29 13:58:53  20401  27.5  45.9 
 348723  2024-05-29 13:58:38  20402  29.2  46.1 
 348722  2024-05-29 13:51:23  4529D  31.7  65.6 
 348721  2024-05-29 13:50:27  20404  32.8  51.5 
 348720  2024-05-29 13:49:15  20401  27.7  46.3 
 348719  2024-05-29 13:48:29  20402  29.6  47.4 
 348718  2024-05-29 13:41:57  814  31.9  90.3 
 348717  2024-05-29 13:40:17  20404  32.8  51.5 
 348716  2024-05-29 13:39:38  20401  27.9  46.5 
 348715  2024-05-29 13:38:19  20402  30.2  49.7 
 348714  2024-05-29 13:32:25  4529D  31.6  65.1 
 348713  2024-05-29 13:30:04  20404  32.8  51.0 
 348712  2024-05-29 13:30:01  20401  27.9  46.7 
 348711  2024-05-29 13:28:09  20402  31.3  52.8 
 348710  2024-05-29 13:23:04  814  31.9  90.2 
 348709  2024-05-29 13:20:23  20401  27.5  46.4 
 348708  2024-05-29 13:19:54  20404  32.8  51.1 
 348707  2024-05-29 13:17:59  20402  32.3  51.0 
 348706  2024-05-29 13:13:26  4529D  31.6  64.3 
 348705  2024-05-29 13:10:45  20401  27.6  46.6 
 348704  2024-05-29 13:09:42  20404  32.7  50.3 
 348703  2024-05-29 13:07:50  20402  32.3  50.7 
 348702  2024-05-29 13:04:12  814  31.9  90.1 
 348701  2024-05-29 13:01:08  20401  27.6  47.2 
 348700  2024-05-29 12:59:32  20404  32.7  50.3 
 348699  2024-05-29 12:57:40  20402  32.3  50.8 
 348698  2024-05-29 12:54:27  4529D  31.5  64.3 
 348697  2024-05-29 12:51:31  20401  27.7  47.6 
 348696  2024-05-29 12:49:20  20404  32.7  50.1 
 348695  2024-05-29 12:47:28  20402  32.2  50.4 
 348694  2024-05-29 12:45:19  814  31.9  89.9 
 348693  2024-05-29 12:41:53  20401  27.9  48.2 
 348692  2024-05-29 12:39:05  20404  32.6  50.0 
 348691  2024-05-29 12:37:18  20402  32.2  50.1 
 348690  2024-05-29 12:35:29  4529D  31.4  63.8 
 348689  2024-05-29 12:32:16  20401  28.1  49.3 
 348688  2024-05-29 12:28:53  20404  32.5  49.3 
 348687  2024-05-29 12:27:08  20402  32.1  49.9 
 348686  2024-05-29 12:26:28  814  31.8  89.8 
 348685  2024-05-29 12:22:39  20401  28.5  50.6 
 348684  2024-05-29 12:18:43  20404  32.4  48.9 
 348683  2024-05-29 12:16:58  20402  32.1  49.9 
 348682  2024-05-29 12:16:30  4529D  31.4  63.1 
 348681  2024-05-29 12:13:02  20401  29.4  52.4 
 348680  2024-05-29 12:08:33  20404  32.5  48.8 
 348679  2024-05-29 12:07:34  814  31.8  90.0 
 348678  2024-05-29 12:06:46  20402  32.0  49.9 
 348677  2024-05-29 11:58:20  20404  32.3  48.3 
 348676  2024-05-29 11:57:31  4529D  31.1  65.2 
 348675  2024-05-29 11:56:36  20402  32.0  49.9 
 348674  2024-05-29 11:53:42  20401  31.5  50.8 
 348673  2024-05-29 11:48:41  814  31.8  90.1 
 348672  2024-05-29 11:48:10  20404  32.2  47.6 
 348671  2024-05-29 11:46:24  20402  31.9  49.5 
 348670  2024-05-29 11:44:04  20401  31.4  50.7 
 348669  2024-05-29 11:38:33  4529D  31.2  70.6 
 348668  2024-05-29 11:38:00  20404  32.2  47.6 
 348667  2024-05-29 11:36:12  20402  31.9  48.9 
 348666  2024-05-29 11:34:26  20401  31.4  49.9 
 348665  2024-05-29 11:29:48  814  31.8  90.2 
 348664  2024-05-29 11:27:48  20404  31.7  45.2 
 348663  2024-05-29 11:26:01  20402  31.8  48.7 
 348662  2024-05-29 11:24:49  20401  31.2  49.6 
 348661  2024-05-29 11:19:34  4529D  31.3  74.0 
 348660  2024-05-29 11:17:38  20404  31.7  45.3 
 348659  2024-05-29 11:15:52  20402  31.8  48.7 
 348658  2024-05-29 11:15:11  20401  31.2  49.2 
 348657  2024-05-29 11:10:55  814  31.8  90.3 
 348656  2024-05-29 11:07:25  20404  29.9  46.9 
 348655  2024-05-29 11:05:39  20402  31.7  47.9 
 348654  2024-05-29 11:05:33  20401  31.1  48.6 
 348653  2024-05-29 11:00:36  4529D  31.4  76.0 
 348652  2024-05-29 10:57:15  20404  30.1  48.7 
 348651  2024-05-29 10:55:55  20401  30.9  47.4 
 348650  2024-05-29 10:55:30  20402  31.7  47.9 
 348649  2024-05-29 10:52:02  814  31.8  90.4 
 348648  2024-05-29 10:47:05  20404  30.3  51.1 
 348647  2024-05-29 10:46:17  20401  30.8  46.7 
 348646  2024-05-29 10:45:18  20402  31.6  47.7 
 348645  2024-05-29 10:41:38  4529D  31.5  75.8 
 348644  2024-05-29 10:36:55  20404  30.6  54.0 
 348643  2024-05-29 10:36:39  20401  30.5  45.8 
 348642  2024-05-29 10:35:05  20402  31.6  47.2 
 348641  2024-05-29 10:33:06  814  31.7  90.4 
 348640  2024-05-29 10:27:00  20401  29.9  45.2 
 348639  2024-05-29 10:26:45  20404  30.6  53.9 
 348638  2024-05-29 10:24:56  20402  31.5  47.1 
 348637  2024-05-29 10:22:38  4529D  31.5  75.8 
 348636  2024-05-29 10:17:21  20401  28.7  45.9 
 348635  2024-05-29 10:16:33  20404  32.3  59.5 
 348634  2024-05-29 10:14:46  20402  31.4  47.0 
 348633  2024-05-29 10:14:13  814  31.8  90.4 
 348632  2024-05-29 10:07:41  20401  27.4  47.3 
 348631  2024-05-29 10:06:23  20404  32.3  59.5 
 348630  2024-05-29 10:04:34  20402  31.2  47.0 
 348629  2024-05-29 10:03:39  4529D  31.5  76.1 
 348628  2024-05-29 09:58:02  20401  27.5  47.9 
 348627  2024-05-29 09:56:10  20404  32.3  59.5 
 348626  2024-05-29 09:55:19  814  31.7  90.6 
 348625  2024-05-29 09:48:25  20401  27.8  48.9 
 348624  2024-05-29 09:45:58  20404  32.3  59.8 
 348623  2024-05-29 09:44:40  4529D  31.4  76.5 
 348622  2024-05-29 09:44:09  20402  31.0  46.6 
 348621  2024-05-29 09:38:45  20401  28.1  50.1 
 348620  2024-05-29 09:36:26  814  31.7  90.6 
 348619  2024-05-29 09:35:45  20404  32.2  59.8 
 348618  2024-05-29 09:33:59  20402  30.8  45.6 
 348617  2024-05-29 09:29:08  20401  28.7  52.3 
 348616  2024-05-29 09:25:41  4529D  31.2  77.0 
 348615  2024-05-29 09:25:35  20404  32.2  59.7 
 348614  2024-05-29 09:23:49  20402  30.3  45.8 
 348613  2024-05-29 09:19:31  20401  29.7  54.9 
 348612  2024-05-29 09:17:34  814  31.8  90.6 
 348611  2024-05-29 09:15:25  20404  32.2  59.8 
 348610  2024-05-29 09:13:40  20402  29.2  47.2 
 348609  2024-05-29 09:09:55  20401  31.4  54.7 
 348608  2024-05-29 09:06:42  4529D  30.9  74.4 
 348607  2024-05-29 09:05:15  20404  32.2  59.7 
 348606  2024-05-29 09:03:30  20402  28.9  48.4 
 348605  2024-05-29 09:00:20  20401  31.5  54.4 
 348604  2024-05-29 08:58:43  814  31.7  90.6 

Data every 20 minute.